sensor_id;sensor_type;location;lat;lon;timestamp;pressure;altitude;pressure_sealevel;temperature;humidity
71976;BME280;68326;52.124;5.424;2023-08-17T00:01:53;102147.06;;;18.22;82.38
71976;BME280;68326;52.124;5.424;2023-08-17T00:04:19;102143.66;;;18.20;83.10
71976;BME280;68326;52.124;5.424;2023-08-17T00:06:46;102147.13;;;18.20;82.50
71976;BME280;68326;52.124;5.424;2023-08-17T00:09:13;102149.03;;;18.18;82.66
71976;BME280;68326;52.124;5.424;2023-08-17T00:11:40;102141.97;;;18.19;82.71
71976;BME280;68326;52.124;5.424;2023-08-17T00:14:06;102137.81;;;18.14;83.17
71976;BME280;68326;52.124;5.424;2023-08-17T00:16:33;102134.34;;;18.14;83.36
71976;BME280;68326;52.124;5.424;2023-08-17T00:18:59;102141.78;;;18.07;83.03
71976;BME280;68326;52.124;5.424;2023-08-17T00:21:26;102144.50;;;18.06;83.94
71976;BME280;68326;52.124;5.424;2023-08-17T00:23:52;102142.75;;;18.06;83.75
71976;BME280;68326;52.124;5.424;2023-08-17T00:26:19;102144.78;;;18.01;83.83
71976;BME280;68326;52.124;5.424;2023-08-17T00:28:46;102141.31;;;18.01;84.11
71976;BME280;68326;52.124;5.424;2023-08-17T00:31:12;102137.25;;;17.95;84.22
71976;BME280;68326;52.124;5.424;2023-08-17T00:33:39;102142.72;;;17.92;84.17
71976;BME280;68326;52.124;5.424;2023-08-17T00:36:05;102141.78;;;17.93;84.22
71976;BME280;68326;52.124;5.424;2023-08-17T00:38:32;102138.38;;;17.91;84.42
71976;BME280;68326;52.124;5.424;2023-08-17T00:40:59;102144.59;;;17.90;84.90
71976;BME280;68326;52.124;5.424;2023-08-17T00:43:26;102138.50;;;17.89;84.89
71976;BME280;68326;52.124;5.424;2023-08-17T00:45:53;102137.63;;;17.89;85.45
71976;BME280;68326;52.124;5.424;2023-08-17T00:48:19;102133.41;;;17.86;85.38
71976;BME280;68326;52.124;5.424;2023-08-17T00:50:48;102129.25;;;17.82;84.89
71976;BME280;68326;52.124;5.424;2023-08-17T00:53:16;102129.31;;;17.81;84.57
71976;BME280;68326;52.124;5.424;2023-08-17T00:55:43;102130.25;;;17.80;85.11
71976;BME280;68326;52.124;5.424;2023-08-17T00:58:10;102127.63;;;17.80;84.95
71976;BME280;68326;52.124;5.424;2023-08-17T01:00:37;102131.22;;;17.79;84.76
71976;BME280;68326;52.124;5.424;2023-08-17T01:03:04;102132.34;;;17.75;84.93
71976;BME280;68326;52.124;5.424;2023-08-17T01:05:30;102135.06;;;17.73;85.17
71976;BME280;68326;52.124;5.424;2023-08-17T01:07:59;102129.97;;;17.70;85.39
71976;BME280;68326;52.124;5.424;2023-08-17T01:10:36;102133.25;;;17.73;85.28
71976;BME280;68326;52.124;5.424;2023-08-17T01:13:09;102133.25;;;17.73;85.33
71976;BME280;68326;52.124;5.424;2023-08-17T01:15:40;102135.81;;;17.75;85.14
71976;BME280;68326;52.124;5.424;2023-08-17T01:18:23;102136.66;;;17.76;84.67
71976;BME280;68326;52.124;5.424;2023-08-17T01:20:50;102137.78;;;17.71;85.68
71976;BME280;68326;52.124;5.424;2023-08-17T01:23:19;102129.03;;;17.71;85.75
71976;BME280;68326;52.124;5.424;2023-08-17T01:25:45;102124.69;;;17.70;85.59
71976;BME280;68326;52.124;5.424;2023-08-17T01:28:12;102114.28;;;17.68;85.82
71976;BME280;68326;52.124;5.424;2023-08-17T01:30:48;102121.22;;;17.69;85.53
71976;BME280;68326;52.124;5.424;2023-08-17T01:33:20;102122.34;;;17.65;85.07
71976;BME280;68326;52.124;5.424;2023-08-17T01:39:15;102119.91;;;17.62;85.81
71976;BME280;68326;52.124;5.424;2023-08-17T01:41:46;102116.31;;;17.63;85.37
71976;BME280;68326;52.124;5.424;2023-08-17T01:44:13;102121.19;;;17.55;85.37
71976;BME280;68326;52.124;5.424;2023-08-17T01:46:40;102128.31;;;17.53;85.48
71976;BME280;68326;52.124;5.424;2023-08-17T01:49:08;102123.34;;;17.48;85.76
71976;BME280;68326;52.124;5.424;2023-08-17T01:51:35;102119.78;;;17.49;85.98
71976;BME280;68326;52.124;5.424;2023-08-17T01:54:01;102111.06;;;17.49;85.53
71976;BME280;68326;52.124;5.424;2023-08-17T01:56:28;102112.06;;;17.46;86.19
71976;BME280;68326;52.124;5.424;2023-08-17T01:58:54;102116.41;;;17.47;85.56
71976;BME280;68326;52.124;5.424;2023-08-17T02:01:20;102116.41;;;17.47;85.95
71976;BME280;68326;52.124;5.424;2023-08-17T02:03:47;102107.66;;;17.47;86.45
71976;BME280;68326;52.124;5.424;2023-08-17T02:06:13;102102.41;;;17.47;86.55
71976;BME280;68326;52.124;5.424;2023-08-17T02:08:41;102099.94;;;17.44;86.58
71976;BME280;68326;52.124;5.424;2023-08-17T02:11:07;102111.41;;;17.43;86.54
71976;BME280;68326;52.124;5.424;2023-08-17T02:13:36;102112.34;;;17.42;86.58
71976;BME280;68326;52.124;5.424;2023-08-17T02:16:06;102114.13;;;17.41;86.26
71976;BME280;68326;52.124;5.424;2023-08-17T02:18:33;102115.31;;;17.36;87.60
71976;BME280;68326;52.124;5.424;2023-08-17T02:21:01;102118.06;;;17.34;86.92
71976;BME280;68326;52.124;5.424;2023-08-17T02:23:27;102127.16;;;17.28;87.26
71976;BME280;68326;52.124;5.424;2023-08-17T02:25:54;102123.75;;;17.26;87.49
71976;BME280;68326;52.124;5.424;2023-08-17T02:28:20;102118.50;;;17.26;87.84
71976;BME280;68326;52.124;5.424;2023-08-17T02:30:48;102112.41;;;17.26;87.29
71976;BME280;68326;52.124;5.424;2023-08-17T02:33:15;102118.59;;;17.25;87.51
71976;BME280;68326;52.124;5.424;2023-08-17T02:35:41;102119.53;;;17.24;87.83
71976;BME280;68326;52.124;5.424;2023-08-17T02:38:08;102109.94;;;17.23;88.31
71976;BME280;68326;52.124;5.424;2023-08-17T02:40:35;102108.13;;;17.23;87.79
71976;BME280;68326;52.124;5.424;2023-08-17T02:43:01;102112.47;;;17.24;87.77
71976;BME280;68326;52.124;5.424;2023-08-17T02:45:28;102107.38;;;17.21;87.87
71976;BME280;68326;52.124;5.424;2023-08-17T02:47:54;102098.75;;;17.19;87.93
71976;BME280;68326;52.124;5.424;2023-08-17T02:50:21;102099.69;;;17.18;88.00
71976;BME280;68326;52.124;5.424;2023-08-17T02:52:47;102096.28;;;17.16;88.37
71976;BME280;68326;52.124;5.424;2023-08-17T02:55:14;102096.38;;;17.15;88.34
71976;BME280;68326;52.124;5.424;2023-08-17T02:57:40;102094.63;;;17.15;88.49
71976;BME280;68326;52.124;5.424;2023-08-17T03:00:07;102099.88;;;17.15;88.49
71976;BME280;68326;52.124;5.424;2023-08-17T03:02:33;102097.41;;;17.12;88.51
71976;BME280;68326;52.124;5.424;2023-08-17T03:05:01;102092.81;;;17.16;88.39
71976;BME280;68326;52.124;5.424;2023-08-17T03:07:27;102097.41;;;17.12;88.49
71976;BME280;68326;52.124;5.424;2023-08-17T03:09:54;102089.59;;;17.10;88.07
71976;BME280;68326;52.124;5.424;2023-08-17T03:12:20;102097.41;;;17.12;88.34
71976;BME280;68326;52.124;5.424;2023-08-17T03:14:47;102092.06;;;17.14;88.16
71976;BME280;68326;52.124;5.424;2023-08-17T03:17:13;102099.94;;;17.14;88.42
71976;BME280;68326;52.124;5.424;2023-08-17T03:19:40;102099.94;;;17.14;87.68
71976;BME280;68326;52.124;5.424;2023-08-17T03:22:07;102094.00;;;17.10;88.24
71976;BME280;68326;52.124;5.424;2023-08-17T03:24:33;102098.34;;;17.11;88.03
71976;BME280;68326;52.124;5.424;2023-08-17T03:26:59;102094.78;;;17.12;88.45
71976;BME280;68326;52.124;5.424;2023-08-17T03:29:26;102081.81;;;17.09;88.11
71976;BME280;68326;52.124;5.424;2023-08-17T03:31:53;102079.06;;;17.10;87.95
71976;BME280;68326;52.124;5.424;2023-08-17T03:34:22;102079.94;;;17.11;87.60
71976;BME280;68326;52.124;5.424;2023-08-17T03:36:48;102078.22;;;17.10;88.45
71976;BME280;68326;52.124;5.424;2023-08-17T03:39:15;102087.22;;;17.06;87.50
71976;BME280;68326;52.124;5.424;2023-08-17T03:41:41;102085.44;;;17.06;88.51
71976;BME280;68326;52.124;5.424;2023-08-17T03:44:08;102087.16;;;17.07;88.24
71976;BME280;68326;52.124;5.424;2023-08-17T03:46:35;102082.81;;;17.06;88.57
71976;BME280;68326;52.124;5.424;2023-08-17T03:49:02;102086.47;;;17.04;88.53
71976;BME280;68326;52.124;5.424;2023-08-17T03:51:29;102089.78;;;17.07;88.42
71976;BME280;68326;52.124;5.424;2023-08-17T03:53:55;102080.19;;;17.06;88.26
71976;BME280;68326;52.124;5.424;2023-08-17T03:56:22;102080.28;;;17.05;87.83
71976;BME280;68326;52.124;5.424;2023-08-17T03:58:49;102081.88;;;17.07;88.57
71976;BME280;68326;52.124;5.424;2023-08-17T04:01:16;102083.75;;;17.05;88.72
71976;BME280;68326;52.124;5.424;2023-08-17T04:03:42;102080.44;;;17.02;88.33
71976;BME280;68326;52.124;5.424;2023-08-17T04:06:09;102080.38;;;17.03;88.14
71976;BME280;68326;52.124;5.424;2023-08-17T04:08:37;102079.63;;;17.01;88.68
71976;BME280;68326;52.124;5.424;2023-08-17T04:11:05;102084.03;;;17.01;88.47
71976;BME280;68326;52.124;5.424;2023-08-17T04:13:32;102091.94;;;17.01;88.24
71976;BME280;68326;52.124;5.424;2023-08-17T04:15:58;102088.34;;;17.02;88.28
71976;BME280;68326;52.124;5.424;2023-08-17T04:18:25;102088.34;;;17.02;87.84
71976;BME280;68326;52.124;5.424;2023-08-17T04:20:51;102092.75;;;17.01;88.36
71976;BME280;68326;52.124;5.424;2023-08-17T04:23:20;102090.97;;;17.02;88.43
71976;BME280;68326;52.124;5.424;2023-08-17T04:25:47;102084.03;;;17.01;88.29
71976;BME280;68326;52.124;5.424;2023-08-17T04:28:14;102084.19;;;16.98;88.64
71976;BME280;68326;52.124;5.424;2023-08-17T04:30:42;102082.50;;;16.97;87.80
71976;BME280;68326;52.124;5.424;2023-08-17T04:33:09;102082.44;;;16.98;88.20
71976;BME280;68326;52.124;5.424;2023-08-17T04:35:35;102078.00;;;16.99;88.78
71976;BME280;68326;52.124;5.424;2023-08-17T04:38:02;102081.56;;;16.98;87.67
71976;BME280;68326;52.124;5.424;2023-08-17T04:40:29;102078.09;;;16.97;87.85
71976;BME280;68326;52.124;5.424;2023-08-17T04:42:56;102075.31;;;17.00;88.02
71976;BME280;68326;52.124;5.424;2023-08-17T04:45:22;102076.97;;;17.01;87.44
71976;BME280;68326;52.124;5.424;2023-08-17T04:47:49;102072.47;;;17.03;87.57
71976;BME280;68326;52.124;5.424;2023-08-17T04:50:16;102080.44;;;17.02;87.56
71976;BME280;68326;52.124;5.424;2023-08-17T04:52:43;102071.66;;;17.03;88.23
71976;BME280;68326;52.124;5.424;2023-08-17T04:55:13;102071.66;;;17.03;87.91
71976;BME280;68326;52.124;5.424;2023-08-17T04:57:40;102076.81;;;17.04;87.40
71976;BME280;68326;52.124;5.424;2023-08-17T05:00:07;102080.38;;;17.03;88.10
71976;BME280;68326;52.124;5.424;2023-08-17T05:02:36;102075.13;;;17.03;87.76
71976;BME280;68326;52.124;5.424;2023-08-17T05:05:09;102074.84;;;17.08;87.87
71976;BME280;68326;52.124;5.424;2023-08-17T05:07:36;102074.69;;;17.11;87.62
71976;BME280;68326;52.124;5.424;2023-08-17T05:10:02;102069.66;;;17.06;88.01
71976;BME280;68326;52.124;5.424;2023-08-17T05:12:29;102068.81;;;17.06;88.43
71976;BME280;68326;52.124;5.424;2023-08-17T05:14:56;102066.19;;;17.06;87.96
71976;BME280;68326;52.124;5.424;2023-08-17T05:17:22;102062.53;;;17.08;88.05
71976;BME280;68326;52.124;5.424;2023-08-17T05:19:49;102065.84;;;17.12;87.96
71976;BME280;68326;52.124;5.424;2023-08-17T05:22:16;102066.59;;;17.14;88.35
71976;BME280;68326;52.124;5.424;2023-08-17T05:24:42;102058.78;;;17.12;88.02
71976;BME280;68326;52.124;5.424;2023-08-17T05:27:09;102072.69;;;17.15;88.03
71976;BME280;68326;52.124;5.424;2023-08-17T05:29:36;102066.69;;;17.12;88.05
71976;BME280;68326;52.124;5.424;2023-08-17T05:32:03;102068.38;;;17.14;87.58
71976;BME280;68326;52.124;5.424;2023-08-17T05:34:29;102074.88;;;17.22;87.88
71976;BME280;68326;52.124;5.424;2023-08-17T05:36:56;102066.81;;;17.25;87.58
71976;BME280;68326;52.124;5.424;2023-08-17T05:39:22;102066.63;;;17.28;87.71
71976;BME280;68326;52.124;5.424;2023-08-17T05:41:49;102064.56;;;17.33;87.64
71976;BME280;68326;52.124;5.424;2023-08-17T05:44:16;102068.63;;;17.39;87.36
71976;BME280;68326;52.124;5.424;2023-08-17T05:46:43;102070.16;;;17.43;87.45
71976;BME280;68326;52.124;5.424;2023-08-17T05:49:10;102068.06;;;17.48;87.46
71976;BME280;68326;52.124;5.424;2023-08-17T05:51:37;102069.41;;;17.56;86.94
71976;BME280;68326;52.124;5.424;2023-08-17T05:54:04;102065.75;;;17.58;86.59
71976;BME280;68326;52.124;5.424;2023-08-17T05:56:31;102076.19;;;17.60;86.38
71976;BME280;68326;52.124;5.424;2023-08-17T05:58:57;102076.75;;;17.65;86.46
71976;BME280;68326;52.124;5.424;2023-08-17T06:01:24;102073.66;;;17.72;85.77
71976;BME280;68326;52.124;5.424;2023-08-17T06:03:51;102084.28;;;17.71;85.88
71976;BME280;68326;52.124;5.424;2023-08-17T06:06:17;102088.69;;;17.70;86.35
71976;BME280;68326;52.124;5.424;2023-08-17T06:08:44;102093.09;;;17.70;86.30
71976;BME280;68326;52.124;5.424;2023-08-17T06:11:10;102101.75;;;17.72;86.25
71976;BME280;68326;52.124;5.424;2023-08-17T06:13:36;102098.19;;;17.73;86.31
71976;BME280;68326;52.124;5.424;2023-08-17T06:16:03;102100.91;;;17.71;86.46
71976;BME280;68326;52.124;5.424;2023-08-17T06:18:30;102107.22;;;17.69;85.89
71976;BME280;68326;52.124;5.424;2023-08-17T06:20:57;102105.50;;;17.68;86.31
71976;BME280;68326;52.124;5.424;2023-08-17T06:23:24;102111.72;;;17.67;86.90
71976;BME280;68326;52.124;5.424;2023-08-17T06:25:50;102107.13;;;17.70;86.56
71976;BME280;68326;52.124;5.424;2023-08-17T06:28:17;102103.53;;;17.71;86.10
71976;BME280;68326;52.124;5.424;2023-08-17T06:30:43;102105.81;;;17.78;86.42
71976;BME280;68326;52.124;5.424;2023-08-17T06:33:10;102104.69;;;17.82;86.76
71976;BME280;68326;52.124;5.424;2023-08-17T06:35:36;102102.91;;;17.82;86.49
71976;BME280;68326;52.124;5.424;2023-08-17T06:38:03;102109.91;;;17.83;86.09
71976;BME280;68326;52.124;5.424;2023-08-17T06:40:29;102112.59;;;17.82;86.53
71976;BME280;68326;52.124;5.424;2023-08-17T06:42:56;102110.75;;;17.84;86.86
71976;BME280;68326;52.124;5.424;2023-08-17T06:45:22;102114.97;;;17.86;86.21
71976;BME280;68326;52.124;5.424;2023-08-17T06:47:49;102104.34;;;17.88;86.72
71976;BME280;68326;52.124;5.424;2023-08-17T06:50:19;102111.75;;;17.96;86.52
71976;BME280;68326;52.124;5.424;2023-08-17T06:52:45;102099.47;;;17.96;87.34
71976;BME280;68326;52.124;5.424;2023-08-17T06:55:12;102100.31;;;17.97;86.26
71976;BME280;68326;52.124;5.424;2023-08-17T06:57:38;102107.91;;;18.01;86.56
71976;BME280;68326;52.124;5.424;2023-08-17T07:00:05;102113.19;;;18.01;85.77
71976;BME280;68326;52.124;5.424;2023-08-17T07:02:32;102106.88;;;18.04;86.43
71976;BME280;68326;52.124;5.424;2023-08-17T07:05:18;102115.44;;;18.07;86.26
71976;BME280;68326;52.124;5.424;2023-08-17T07:07:45;102118.91;;;18.08;85.03
71976;BME280;68326;52.124;5.424;2023-08-17T07:10:11;102113.34;;;18.12;85.52
71976;BME280;68326;52.124;5.424;2023-08-17T07:12:39;102111.59;;;18.13;85.09
71976;BME280;68326;52.124;5.424;2023-08-17T07:15:06;102111.69;;;18.11;84.80
71976;BME280;68326;52.124;5.424;2023-08-17T07:17:33;102110.72;;;18.12;85.31
71976;BME280;68326;52.124;5.424;2023-08-17T07:20:06;102110.47;;;18.17;84.68
71976;BME280;68326;52.124;5.424;2023-08-17T07:22:42;102109.22;;;18.23;85.57
71976;BME280;68326;52.124;5.424;2023-08-17T07:25:09;102109.59;;;18.31;85.78
71976;BME280;68326;52.124;5.424;2023-08-17T07:27:35;102113.41;;;18.40;84.63
71976;BME280;68326;52.124;5.424;2023-08-17T07:30:02;102114.09;;;18.43;84.76
71976;BME280;68326;52.124;5.424;2023-08-17T07:32:29;102118.13;;;18.49;83.75
71976;BME280;68326;52.124;5.424;2023-08-17T07:34:55;102112.44;;;18.55;84.22
71976;BME280;68326;52.124;5.424;2023-08-17T07:37:22;102110.28;;;18.62;84.22
71976;BME280;68326;52.124;5.424;2023-08-17T07:39:48;102108.63;;;18.73;83.26
71976;BME280;68326;52.124;5.424;2023-08-17T07:42:15;102114.63;;;18.90;83.01
71976;BME280;68326;52.124;5.424;2023-08-17T07:44:42;102106.56;;;19.06;83.25
71976;BME280;68326;52.124;5.424;2023-08-17T07:47:08;102107.97;;;19.24;82.44
71976;BME280;68326;52.124;5.424;2023-08-17T07:49:35;102110.94;;;19.32;81.27
71976;BME280;68326;52.124;5.424;2023-08-17T07:52:01;102106.41;;;19.34;81.13
71976;BME280;68326;52.124;5.424;2023-08-17T07:54:28;102104.09;;;19.43;81.01
71976;BME280;68326;52.124;5.424;2023-08-17T07:56:54;102110.75;;;19.48;79.36
71976;BME280;68326;52.124;5.424;2023-08-17T07:59:21;102112.75;;;19.45;79.97
71976;BME280;68326;52.124;5.424;2023-08-17T08:01:47;102110.31;;;19.54;79.81
71976;BME280;68326;52.124;5.424;2023-08-17T08:04:14;102108.53;;;19.55;79.82
71976;BME280;68326;52.124;5.424;2023-08-17T08:06:40;102115.09;;;19.62;80.56
71976;BME280;68326;52.124;5.424;2023-08-17T08:09:07;102111.84;;;19.71;79.68
71976;BME280;68326;52.124;5.424;2023-08-17T08:11:34;102113.97;;;19.79;79.41
71976;BME280;68326;52.124;5.424;2023-08-17T08:14:03;102115.53;;;19.94;79.62
71976;BME280;68326;52.124;5.424;2023-08-17T08:16:30;102108.34;;;19.96;78.46
71976;BME280;68326;52.124;5.424;2023-08-17T08:18:57;102103.91;;;19.97;77.10
71976;BME280;68326;52.124;5.424;2023-08-17T08:21:24;102105.78;;;20.08;78.32
71976;BME280;68326;52.124;5.424;2023-08-17T08:23:50;102109.16;;;20.23;77.90
71976;BME280;68326;52.124;5.424;2023-08-17T08:26:17;102112.03;;;20.20;78.48
71976;BME280;68326;52.124;5.424;2023-08-17T08:28:43;102106.00;;;20.17;77.09
71976;BME280;68326;52.124;5.424;2023-08-17T08:31:10;102106.44;;;20.11;77.42
71976;BME280;68326;52.124;5.424;2023-08-17T08:33:37;102108.75;;;20.03;77.99
71976;BME280;68326;52.124;5.424;2023-08-17T08:36:03;102107.94;;;19.90;77.91
71976;BME280;68326;52.124;5.424;2023-08-17T08:38:32;102108.38;;;19.84;78.44
71976;BME280;68326;52.124;5.424;2023-08-17T08:40:58;102110.03;;;19.72;78.91
71976;BME280;68326;52.124;5.424;2023-08-17T08:43:25;102108.03;;;19.75;78.65
71976;BME280;68326;52.124;5.424;2023-08-17T08:45:52;102108.03;;;19.75;78.79
71976;BME280;68326;52.124;5.424;2023-08-17T08:48:22;102113.75;;;19.82;79.30
71976;BME280;68326;52.124;5.424;2023-08-17T08:50:54;102105.63;;;19.85;80.04
71976;BME280;68326;52.124;5.424;2023-08-17T08:53:28;102102.97;;;19.85;79.45
71976;BME280;68326;52.124;5.424;2023-08-17T08:56:02;102102.34;;;19.82;79.81
71976;BME280;68326;52.124;5.424;2023-08-17T08:58:31;102096.13;;;19.83;79.42
71976;BME280;68326;52.124;5.424;2023-08-17T09:01:00;102098.22;;;19.78;79.37
71976;BME280;68326;52.124;5.424;2023-08-17T09:03:27;102100.72;;;19.66;79.64
71976;BME280;68326;52.124;5.424;2023-08-17T09:05:55;102099.59;;;19.70;79.64
71976;BME280;68326;52.124;5.424;2023-08-17T09:08:27;102099.94;;;19.79;78.96
71976;BME280;68326;52.124;5.424;2023-08-17T09:10:54;102101.91;;;19.88;79.50
71976;BME280;68326;52.124;5.424;2023-08-17T09:13:20;102089.00;;;19.96;78.81
71976;BME280;68326;52.124;5.424;2023-08-17T09:15:47;102095.03;;;19.98;78.76
71976;BME280;68326;52.124;5.424;2023-08-17T09:18:15;102093.22;;;20.11;79.03
71976;BME280;68326;52.124;5.424;2023-08-17T09:20:44;102089.91;;;20.21;78.37
71976;BME280;68326;52.124;5.424;2023-08-17T09:23:16;102080.19;;;20.21;78.05
71976;BME280;68326;52.124;5.424;2023-08-17T09:25:44;102084.13;;;20.15;78.56
71976;BME280;68326;52.124;5.424;2023-08-17T09:28:13;102083.78;;;20.20;78.70
71976;BME280;68326;52.124;5.424;2023-08-17T09:30:57;102082.72;;;20.23;79.52
71976;BME280;68326;52.124;5.424;2023-08-17T09:33:26;102083.03;;;20.18;78.70
71976;BME280;68326;52.124;5.424;2023-08-17T09:35:55;102080.19;;;20.21;78.09
71976;BME280;68326;52.124;5.424;2023-08-17T09:38:26;102082.09;;;20.19;78.82
71976;BME280;68326;52.124;5.424;2023-08-17T09:40:54;102070.91;;;20.15;78.51
71976;BME280;68326;52.124;5.424;2023-08-17T09:43:21;102072.13;;;20.23;79.92
71976;BME280;68326;52.124;5.424;2023-08-17T09:45:48;102072.78;;;20.26;78.68
71976;BME280;68326;52.124;5.424;2023-08-17T09:48:17;102070.97;;;20.27;77.97
71976;BME280;68326;52.124;5.424;2023-08-17T09:50:45;102069.16;;;20.27;77.77
71976;BME280;68326;52.124;5.424;2023-08-17T09:53:17;102065.88;;;20.36;78.75
71976;BME280;68326;52.124;5.424;2023-08-17T09:55:45;102063.72;;;20.42;79.46
71976;BME280;68326;52.124;5.424;2023-08-17T09:58:12;102071.00;;;20.51;79.97
71976;BME280;68326;52.124;5.424;2023-08-17T10:00:44;102072.69;;;20.52;78.54
71976;BME280;68326;52.124;5.424;2023-08-17T10:03:17;102058.81;;;20.48;78.72
71976;BME280;68326;52.124;5.424;2023-08-17T10:05:47;102062.66;;;20.44;77.39
71976;BME280;68326;52.124;5.424;2023-08-17T10:08:22;102062.78;;;20.43;78.15
71976;BME280;68326;52.124;5.424;2023-08-17T10:10:50;102058.56;;;20.40;77.92
71976;BME280;68326;52.124;5.424;2023-08-17T10:13:30;102057.09;;;20.36;78.21
71976;BME280;68326;52.124;5.424;2023-08-17T10:16:39;102059.50;;;20.39;77.82
71976;BME280;68326;52.124;5.424;2023-08-17T10:24:34;102051.19;;;20.32;79.32
71976;BME280;68326;52.124;5.424;2023-08-17T10:27:05;102042.69;;;20.40;79.65
71976;BME280;68326;52.124;5.424;2023-08-17T10:29:32;102052.06;;;20.44;79.51
71976;BME280;68326;52.124;5.424;2023-08-17T10:32:00;102048.25;;;20.48;79.38
71976;BME280;68326;52.124;5.424;2023-08-17T10:34:28;102042.03;;;20.49;79.35
71976;BME280;68326;52.124;5.424;2023-08-17T10:36:55;102041.19;;;20.49;78.25
71976;BME280;68326;52.124;5.424;2023-08-17T10:39:29;102042.97;;;20.48;78.72
71976;BME280;68326;52.124;5.424;2023-08-17T10:41:57;102044.13;;;20.44;78.93
71976;BME280;68326;52.124;5.424;2023-08-17T10:47:22;102052.94;;;20.45;77.71
71976;BME280;68326;52.124;5.424;2023-08-17T10:50:02;102050.75;;;20.39;78.68
71976;BME280;68326;52.124;5.424;2023-08-17T10:52:33;102051.34;;;20.42;80.06
71976;BME280;68326;52.124;5.424;2023-08-17T10:55:05;102060.13;;;20.43;79.08
71976;BME280;68326;52.124;5.424;2023-08-17T10:57:35;102054.94;;;20.41;78.12
71976;BME280;68326;52.124;5.424;2023-08-17T11:02:37;102050.56;;;20.29;79.43
71976;BME280;68326;52.124;5.424;2023-08-17T11:05:05;102038.91;;;20.31;79.34
71976;BME280;68326;52.124;5.424;2023-08-17T11:07:58;102045.22;;;20.42;78.59
71976;BME280;68326;52.124;5.424;2023-08-17T11:12:53;102042.66;;;20.53;79.82
71976;BME280;68326;52.124;5.424;2023-08-17T11:15:24;102041.38;;;20.59;79.27
71976;BME280;68326;52.124;5.424;2023-08-17T11:17:50;102043.81;;;20.62;79.07
71976;BME280;68326;52.124;5.424;2023-08-17T11:20:17;102041.16;;;20.62;78.27
71976;BME280;68326;52.124;5.424;2023-08-17T11:22:46;102050.22;;;20.70;80.19
71976;BME280;68326;52.124;5.424;2023-08-17T11:25:14;102043.22;;;20.69;79.67
71976;BME280;68326;52.124;5.424;2023-08-17T11:27:41;102041.31;;;20.71;80.34
71976;BME280;68326;52.124;5.424;2023-08-17T11:30:08;102045.50;;;20.74;79.72
71976;BME280;68326;52.124;5.424;2023-08-17T11:32:35;102043.94;;;20.71;77.86
71976;BME280;68326;52.124;5.424;2023-08-17T11:35:02;102042.38;;;20.69;79.33
71976;BME280;68326;52.124;5.424;2023-08-17T11:37:29;102048.75;;;20.66;78.73
71976;BME280;68326;52.124;5.424;2023-08-17T11:39:55;102054.38;;;20.62;78.70
71976;BME280;68326;52.124;5.424;2023-08-17T11:42:22;102050.34;;;20.56;78.02
71976;BME280;68326;52.124;5.424;2023-08-17T11:44:48;102045.41;;;20.51;78.23
71976;BME280;68326;52.124;5.424;2023-08-17T11:47:15;102045.59;;;20.48;78.03
71976;BME280;68326;52.124;5.424;2023-08-17T11:49:42;102040.00;;;20.53;78.95
71976;BME280;68326;52.124;5.424;2023-08-17T11:52:10;102037.13;;;20.56;79.23
71976;BME280;68326;52.124;5.424;2023-08-17T11:54:40;102030.56;;;20.62;78.70
71976;BME280;68326;52.124;5.424;2023-08-17T11:57:08;102041.00;;;20.63;80.19
71976;BME280;68326;52.124;5.424;2023-08-17T11:59:34;102030.84;;;20.70;80.37
71976;BME280;68326;52.124;5.424;2023-08-17T12:02:02;102029.63;;;20.74;81.25
71976;BME280;68326;52.124;5.424;2023-08-17T12:04:32;102037.72;;;20.72;79.49
71976;BME280;68326;52.124;5.424;2023-08-17T12:06:58;102031.91;;;20.67;79.37
71976;BME280;68326;52.124;5.424;2023-08-17T12:09:25;102036.81;;;20.61;79.62
71976;BME280;68326;52.124;5.424;2023-08-17T12:11:58;102034.47;;;20.56;79.14
71976;BME280;68326;52.124;5.424;2023-08-17T12:14:27;102037.19;;;20.43;79.67
71976;BME280;68326;52.124;5.424;2023-08-17T12:16:54;102038.00;;;20.44;79.82
71976;BME280;68326;52.124;5.424;2023-08-17T12:19:21;102032.81;;;20.42;80.13
71976;BME280;68326;52.124;5.424;2023-08-17T12:21:48;102032.22;;;20.39;79.85
71976;BME280;68326;52.124;5.424;2023-08-17T12:24:16;102036.53;;;20.40;81.06
71976;BME280;68326;52.124;5.424;2023-08-17T12:26:46;102038.84;;;20.44;81.04
71976;BME280;68326;52.124;5.424;2023-08-17T12:29:13;102033.56;;;20.44;80.40
71976;BME280;68326;52.124;5.424;2023-08-17T12:31:40;102036.69;;;20.38;80.38
71976;BME280;68326;52.124;5.424;2023-08-17T12:34:07;102028.63;;;20.40;79.86
71976;BME280;68326;52.124;5.424;2023-08-17T12:36:34;102030.19;;;20.42;80.64
71976;BME280;68326;52.124;5.424;2023-08-17T12:39:04;102031.66;;;20.46;81.65
71976;BME280;68326;52.124;5.424;2023-08-17T12:41:32;102032.53;;;20.47;80.97
71976;BME280;68326;52.124;5.424;2023-08-17T12:43:58;102033.56;;;20.44;81.27
71976;BME280;68326;52.124;5.424;2023-08-17T12:46:25;102036.34;;;20.43;80.60
71976;BME280;68326;52.124;5.424;2023-08-17T12:48:57;102032.97;;;20.41;81.05
71976;BME280;68326;52.124;5.424;2023-08-17T12:51:23;102039.94;;;20.42;81.71
71976;BME280;68326;52.124;5.424;2023-08-17T12:53:50;102034.78;;;20.40;81.92
71976;BME280;68326;52.124;5.424;2023-08-17T12:56:16;102036.69;;;20.38;81.17
71976;BME280;68326;52.124;5.424;2023-08-17T12:58:43;102043.88;;;20.36;80.16
71976;BME280;68326;52.124;5.424;2023-08-17T13:01:10;102039.19;;;20.40;81.32
71976;BME280;68326;52.124;5.424;2023-08-17T13:03:36;102044.38;;;20.41;81.49
71976;BME280;68326;52.124;5.424;2023-08-17T13:06:03;102044.47;;;20.40;80.66
71976;BME280;68326;52.124;5.424;2023-08-17T13:08:29;102033.06;;;20.39;81.08
71976;BME280;68326;52.124;5.424;2023-08-17T13:10:56;102038.25;;;20.41;81.82